sensor_id;sensor_type;location;lat;lon;timestamp;temperature;humidity
70170;DHT22;57543;45.442;9.212;2022-12-07T00:00:19;5.86;79.20
70170;DHT22;57543;45.442;9.212;2022-12-07T00:03:22;5.83;79.37
70170;DHT22;57543;45.442;9.212;2022-12-07T00:06:26;5.82;79.58
70170;DHT22;57543;45.442;9.212;2022-12-07T00:09:30;5.81;79.60
70170;DHT22;57543;45.442;9.212;2022-12-07T00:12:33;5.73;79.62
70170;DHT22;57543;45.442;9.212;2022-12-07T00:15:37;5.73;79.54
70170;DHT22;57543;45.442;9.212;2022-12-07T00:18:41;5.69;79.46
70170;DHT22;57543;45.442;9.212;2022-12-07T00:21:45;5.78;79.22
70170;DHT22;57543;45.442;9.212;2022-12-07T00:24:49;5.73;79.24
70170;DHT22;57543;45.442;9.212;2022-12-07T00:27:53;5.66;79.38
70170;DHT22;57543;45.442;9.212;2022-12-07T00:31:04;5.62;79.50
70170;DHT22;57543;45.442;9.212;2022-12-07T00:34:16;5.65;79.42
70170;DHT22;57543;45.442;9.212;2022-12-07T00:37:20;5.59;79.49
70170;DHT22;57543;45.442;9.212;2022-12-07T00:40:23;5.62;79.53
70170;DHT22;57543;45.442;9.212;2022-12-07T00:43:27;5.66;79.54
70170;DHT22;57543;45.442;9.212;2022-12-07T00:46:31;5.71;79.91
70170;DHT22;57543;45.442;9.212;2022-12-07T00:49:34;5.72;79.76
70170;DHT22;57543;45.442;9.212;2022-12-07T00:52:38;5.68;79.58
70170;DHT22;57543;45.442;9.212;2022-12-07T00:55:43;5.83;79.56
70170;DHT22;57543;45.442;9.212;2022-12-07T01:01:58;5.79;79.64
70170;DHT22;57543;45.442;9.212;2022-12-07T01:05:02;5.72;79.42
70170;DHT22;57543;45.442;9.212;2022-12-07T01:08:06;5.68;79.41
70170;DHT22;57543;45.442;9.212;2022-12-07T01:11:14;5.62;79.43
70170;DHT22;57543;45.442;9.212;2022-12-07T01:14:18;5.69;79.40
70170;DHT22;57543;45.442;9.212;2022-12-07T01:17:21;5.69;79.22
70170;DHT22;57543;45.442;9.212;2022-12-07T01:20:25;5.65;79.10
70170;DHT22;57543;45.442;9.212;2022-12-07T01:23:29;5.81;79.01
70170;DHT22;57543;45.442;9.212;2022-12-07T01:26:33;5.85;79.23
70170;DHT22;57543;45.442;9.212;2022-12-07T01:29:36;5.96;79.45
70170;DHT22;57543;45.442;9.212;2022-12-07T01:32:40;5.93;79.34
70170;DHT22;57543;45.442;9.212;2022-12-07T01:35:44;5.86;79.30
70170;DHT22;57543;45.442;9.212;2022-12-07T01:38:49;5.79;79.07
70170;DHT22;57543;45.442;9.212;2022-12-07T01:41:56;5.76;78.96
70170;DHT22;57543;45.442;9.212;2022-12-07T01:48:28;5.72;78.90
70170;DHT22;57543;45.442;9.212;2022-12-07T01:51:36;5.64;78.61
70170;DHT22;57543;45.442;9.212;2022-12-07T01:54:43;5.54;78.86
70170;DHT22;57543;45.442;9.212;2022-12-07T01:57:49;5.48;79.24
70170;DHT22;57543;45.442;9.212;2022-12-07T02:00:54;5.44;79.59
70170;DHT22;57543;45.442;9.212;2022-12-07T02:03:58;5.44;79.75
70170;DHT22;57543;45.442;9.212;2022-12-07T02:07:03;5.45;79.78
70170;DHT22;57543;45.442;9.212;2022-12-07T02:10:25;5.48;79.95
70170;DHT22;57543;45.442;9.212;2022-12-07T02:13:32;5.54;79.89
70170;DHT22;57543;45.442;9.212;2022-12-07T02:17:03;5.48;79.89
70170;DHT22;57543;45.442;9.212;2022-12-07T02:20:30;5.48;80.02
70170;DHT22;57543;45.442;9.212;2022-12-07T02:23:55;5.47;80.25
70170;DHT22;57543;45.442;9.212;2022-12-07T02:27:34;5.43;80.85
70170;DHT22;57543;45.442;9.212;2022-12-07T02:30:45;5.50;80.88
70170;DHT22;57543;45.442;9.212;2022-12-07T02:33:55;5.47;80.78
70170;DHT22;57543;45.442;9.212;2022-12-07T02:37:05;5.44;80.45
70170;DHT22;57543;45.442;9.212;2022-12-07T02:43:41;5.44;80.23
70170;DHT22;57543;45.442;9.212;2022-12-07T02:46:53;5.56;79.94
70170;DHT22;57543;45.442;9.212;2022-12-07T02:49:58;5.51;79.94
70170;DHT22;57543;45.442;9.212;2022-12-07T02:53:02;5.48;79.96
70170;DHT22;57543;45.442;9.212;2022-12-07T02:56:31;5.44;79.92
70170;DHT22;57543;45.442;9.212;2022-12-07T03:00:17;5.40;79.84
70170;DHT22;57543;45.442;9.212;2022-12-07T03:03:22;5.40;79.92
70170;DHT22;57543;45.442;9.212;2022-12-07T03:06:36;5.33;79.83
70170;DHT22;57543;45.442;9.212;2022-12-07T03:16:17;5.22;79.22
70170;DHT22;57543;45.442;9.212;2022-12-07T03:19:24;5.27;78.78
70170;DHT22;57543;45.442;9.212;2022-12-07T03:22:31;5.12;78.29
70170;DHT22;57543;45.442;9.212;2022-12-07T03:25:43;5.24;78.32
70170;DHT22;57543;45.442;9.212;2022-12-07T03:28:53;5.23;77.95
70170;DHT22;57543;45.442;9.212;2022-12-07T03:32:06;5.26;77.89
70170;DHT22;57543;45.442;9.212;2022-12-07T03:35:19;5.12;77.69
70170;DHT22;57543;45.442;9.212;2022-12-07T03:38:29;5.16;77.39
70170;DHT22;57543;45.442;9.212;2022-12-07T03:41:35;5.02;77.28
70170;DHT22;57543;45.442;9.212;2022-12-07T03:44:41;4.88;77.42
70170;DHT22;57543;45.442;9.212;2022-12-07T03:47:53;4.82;77.27
70170;DHT22;57543;45.442;9.212;2022-12-07T03:51:10;4.74;77.43
70170;DHT22;57543;45.442;9.212;2022-12-07T03:54:19;4.74;77.58
70170;DHT22;57543;45.442;9.212;2022-12-07T03:57:26;4.65;77.86
70170;DHT22;57543;45.442;9.212;2022-12-07T04:00:31;4.57;78.17
70170;DHT22;57543;45.442;9.212;2022-12-07T04:03:34;4.64;78.27
70170;DHT22;57543;45.442;9.212;2022-12-07T04:06:38;4.62;78.22
70170;DHT22;57543;45.442;9.212;2022-12-07T04:09:42;4.61;78.24
70170;DHT22;57543;45.442;9.212;2022-12-07T04:12:45;4.71;78.39
70170;DHT22;57543;45.442;9.212;2022-12-07T04:15:49;4.68;78.59
70170;DHT22;57543;45.442;9.212;2022-12-07T04:18:53;4.69;78.63
70170;DHT22;57543;45.442;9.212;2022-12-07T04:21:58;4.89;78.25
70170;DHT22;57543;45.442;9.212;2022-12-07T04:25:02;5.03;76.70
70170;DHT22;57543;45.442;9.212;2022-12-07T04:28:06;4.96;75.59
70170;DHT22;57543;45.442;9.212;2022-12-07T04:31:10;4.83;75.04
70170;DHT22;57543;45.442;9.212;2022-12-07T04:34:13;4.76;75.59
70170;DHT22;57543;45.442;9.212;2022-12-07T04:37:17;4.82;74.67
70170;DHT22;57543;45.442;9.212;2022-12-07T04:40:21;4.65;73.98
70170;DHT22;57543;45.442;9.212;2022-12-07T04:43:25;4.54;74.83
70170;DHT22;57543;45.442;9.212;2022-12-07T04:46:30;4.50;74.97
70170;DHT22;57543;45.442;9.212;2022-12-07T04:49:34;4.40;74.61
70170;DHT22;57543;45.442;9.212;2022-12-07T04:52:37;4.38;74.76
70170;DHT22;57543;45.442;9.212;2022-12-07T04:55:41;4.38;74.42
70170;DHT22;57543;45.442;9.212;2022-12-07T04:58:46;4.19;74.59
70170;DHT22;57543;45.442;9.212;2022-12-07T05:01:50;4.23;74.39
70170;DHT22;57543;45.442;9.212;2022-12-07T05:04:54;4.26;74.15
70170;DHT22;57543;45.442;9.212;2022-12-07T05:07:57;4.26;73.99
70170;DHT22;57543;45.442;9.212;2022-12-07T05:11:03;4.19;73.80
70170;DHT22;57543;45.442;9.212;2022-12-07T05:17:15;3.93;74.46
70170;DHT22;57543;45.442;9.212;2022-12-07T05:20:20;3.92;74.99
70170;DHT22;57543;45.442;9.212;2022-12-07T05:23:23;3.79;75.00
70170;DHT22;57543;45.442;9.212;2022-12-07T05:26:27;3.71;75.45
70170;DHT22;57543;45.442;9.212;2022-12-07T05:29:31;3.71;75.37
70170;DHT22;57543;45.442;9.212;2022-12-07T05:32:35;3.74;75.54
70170;DHT22;57543;45.442;9.212;2022-12-07T05:35:38;3.67;75.36
70170;DHT22;57543;45.442;9.212;2022-12-07T05:38:42;3.73;75.28
70170;DHT22;57543;45.442;9.212;2022-12-07T05:41:46;3.70;75.01
70170;DHT22;57543;45.442;9.212;2022-12-07T05:45:09;3.77;74.62
70170;DHT22;57543;45.442;9.212;2022-12-07T05:48:12;3.71;73.88
70170;DHT22;57543;45.442;9.212;2022-12-07T05:51:16;3.65;74.30
70170;DHT22;57543;45.442;9.212;2022-12-07T05:54:20;3.50;74.52
70170;DHT22;57543;45.442;9.212;2022-12-07T05:57:24;3.47;75.21
70170;DHT22;57543;45.442;9.212;2022-12-07T06:00:28;3.57;75.76
70170;DHT22;57543;45.442;9.212;2022-12-07T06:03:31;3.50;75.48
70170;DHT22;57543;45.442;9.212;2022-12-07T06:06:35;3.31;76.11
70170;DHT22;57543;45.442;9.212;2022-12-07T06:09:39;3.40;76.28
70170;DHT22;57543;45.442;9.212;2022-12-07T06:12:43;3.47;76.24
70170;DHT22;57543;45.442;9.212;2022-12-07T06:15:48;3.56;76.13
70170;DHT22;57543;45.442;9.212;2022-12-07T06:18:52;3.53;76.42
70170;DHT22;57543;45.442;9.212;2022-12-07T06:21:56;3.63;76.37
70170;DHT22;57543;45.442;9.212;2022-12-07T06:25:00;3.53;76.30
70170;DHT22;57543;45.442;9.212;2022-12-07T06:28:04;3.54;76.40
70170;DHT22;57543;45.442;9.212;2022-12-07T06:31:08;3.65;76.51
70170;DHT22;57543;45.442;9.212;2022-12-07T06:34:14;3.65;76.25
70170;DHT22;57543;45.442;9.212;2022-12-07T06:37:18;3.53;76.08
70170;DHT22;57543;45.442;9.212;2022-12-07T06:40:22;3.53;76.20
70170;DHT22;57543;45.442;9.212;2022-12-07T06:43:25;3.48;76.65
70170;DHT22;57543;45.442;9.212;2022-12-07T06:46:29;3.50;76.66
70170;DHT22;57543;45.442;9.212;2022-12-07T06:49:33;3.34;76.87
70170;DHT22;57543;45.442;9.212;2022-12-07T06:52:37;3.13;77.47
70170;DHT22;57543;45.442;9.212;2022-12-07T06:55:41;2.99;77.69
70170;DHT22;57543;45.442;9.212;2022-12-07T06:58:44;3.12;77.68
70170;DHT22;57543;45.442;9.212;2022-12-07T07:01:47;3.18;78.05
70170;DHT22;57543;45.442;9.212;2022-12-07T07:04:51;3.29;77.95
70170;DHT22;57543;45.442;9.212;2022-12-07T07:07:55;3.43;77.49
70170;DHT22;57543;45.442;9.212;2022-12-07T07:10:59;3.43;77.54
70170;DHT22;57543;45.442;9.212;2022-12-07T07:14:03;3.46;77.61
70170;DHT22;57543;45.442;9.212;2022-12-07T07:17:07;3.50;77.34
70170;DHT22;57543;45.442;9.212;2022-12-07T07:20:12;3.53;77.25
70170;DHT22;57543;45.442;9.212;2022-12-07T07:23:15;3.56;77.30
70170;DHT22;57543;45.442;9.212;2022-12-07T07:26:19;3.57;77.31
70170;DHT22;57543;45.442;9.212;2022-12-07T07:29:22;3.57;77.31
70170;DHT22;57543;45.442;9.212;2022-12-07T07:32:26;3.47;77.07
70170;DHT22;57543;45.442;9.212;2022-12-07T07:35:32;3.58;76.86
70170;DHT22;57543;45.442;9.212;2022-12-07T07:38:36;3.50;76.88
70170;DHT22;57543;45.442;9.212;2022-12-07T07:41:39;3.64;76.79
70170;DHT22;57543;45.442;9.212;2022-12-07T07:44:49;3.60;77.09
70170;DHT22;57543;45.442;9.212;2022-12-07T07:47:53;3.61;77.07
70170;DHT22;57543;45.442;9.212;2022-12-07T07:50:57;3.64;76.62
70170;DHT22;57543;45.442;9.212;2022-12-07T07:54:01;3.63;76.63
70170;DHT22;57543;45.442;9.212;2022-12-07T07:57:05;3.60;76.58
70170;DHT22;57543;45.442;9.212;2022-12-07T08:00:11;3.54;76.84
70170;DHT22;57543;45.442;9.212;2022-12-07T08:03:18;3.51;77.33
70170;DHT22;57543;45.442;9.212;2022-12-07T08:06:22;3.47;77.70
70170;DHT22;57543;45.442;9.212;2022-12-07T08:09:26;3.43;77.93
70170;DHT22;57543;45.442;9.212;2022-12-07T08:12:30;3.54;77.67
70170;DHT22;57543;45.442;9.212;2022-12-07T08:15:37;3.63;77.54
70170;DHT22;57543;45.442;9.212;2022-12-07T08:18:42;3.65;77.28
70170;DHT22;57543;45.442;9.212;2022-12-07T08:21:45;3.67;77.43
70170;DHT22;57543;45.442;9.212;2022-12-07T08:24:49;3.65;77.34
70170;DHT22;57543;45.442;9.212;2022-12-07T08:27:53;3.71;77.60
70170;DHT22;57543;45.442;9.212;2022-12-07T08:31:01;3.78;77.59
70170;DHT22;57543;45.442;9.212;2022-12-07T08:34:06;3.75;77.51
70170;DHT22;57543;45.442;9.212;2022-12-07T08:37:10;3.79;77.75
70170;DHT22;57543;45.442;9.212;2022-12-07T08:40:14;3.91;77.92
70170;DHT22;57543;45.442;9.212;2022-12-07T08:43:19;3.81;78.20
70170;DHT22;57543;45.442;9.212;2022-12-07T08:46:48;3.74;78.82
70170;DHT22;57543;45.442;9.212;2022-12-07T08:49:53;3.88;78.85
70170;DHT22;57543;45.442;9.212;2022-12-07T08:52:58;3.95;78.93
70170;DHT22;57543;45.442;9.212;2022-12-07T08:56:03;4.01;78.94
70170;DHT22;57543;45.442;9.212;2022-12-07T08:59:08;4.09;78.76
70170;DHT22;57543;45.442;9.212;2022-12-07T09:02:11;4.14;78.33
70170;DHT22;57543;45.442;9.212;2022-12-07T09:05:15;4.20;78.19
70170;DHT22;57543;45.442;9.212;2022-12-07T09:08:20;4.27;78.28
70170;DHT22;57543;45.442;9.212;2022-12-07T09:11:24;4.30;78.07
70170;DHT22;57543;45.442;9.212;2022-12-07T09:14:28;4.29;78.05
70170;DHT22;57543;45.442;9.212;2022-12-07T09:17:32;4.34;78.12
70170;DHT22;57543;45.442;9.212;2022-12-07T09:20:36;4.40;78.17
70170;DHT22;57543;45.442;9.212;2022-12-07T09:23:41;4.40;77.81
70170;DHT22;57543;45.442;9.212;2022-12-07T09:26:45;4.38;77.83
70170;DHT22;57543;45.442;9.212;2022-12-07T09:29:49;4.41;78.42
70170;DHT22;57543;45.442;9.212;2022-12-07T09:32:54;4.40;78.03
70170;DHT22;57543;45.442;9.212;2022-12-07T09:35:58;4.47;78.36
70170;DHT22;57543;45.442;9.212;2022-12-07T09:39:02;4.46;78.06
70170;DHT22;57543;45.442;9.212;2022-12-07T09:42:08;4.47;78.25
70170;DHT22;57543;45.442;9.212;2022-12-07T09:45:21;4.53;78.22
70170;DHT22;57543;45.442;9.212;2022-12-07T09:48:30;4.55;77.98
70170;DHT22;57543;45.442;9.212;2022-12-07T09:51:34;4.60;77.91
70170;DHT22;57543;45.442;9.212;2022-12-07T09:54:41;4.61;77.91
70170;DHT22;57543;45.442;9.212;2022-12-07T09:57:47;4.61;77.09
70170;DHT22;57543;45.442;9.212;2022-12-07T10:04:18;4.65;77.21
70170;DHT22;57543;45.442;9.212;2022-12-07T10:07:22;4.61;77.11
70170;DHT22;57543;45.442;9.212;2022-12-07T10:10:30;4.62;76.81
70170;DHT22;57543;45.442;9.212;2022-12-07T10:13:37;4.61;77.01
70170;DHT22;57543;45.442;9.212;2022-12-07T10:16:41;4.58;76.91
70170;DHT22;57543;45.442;9.212;2022-12-07T10:19:45;4.60;77.03
70170;DHT22;57543;45.442;9.212;2022-12-07T10:26:20;4.60;76.91
70170;DHT22;57543;45.442;9.212;2022-12-07T10:29:32;4.58;77.09
70170;DHT22;57543;45.442;9.212;2022-12-07T10:32:36;4.58;77.09
70170;DHT22;57543;45.442;9.212;2022-12-07T10:35:43;4.54;77.70
70170;DHT22;57543;45.442;9.212;2022-12-07T10:39:14;4.62;77.54
70170;DHT22;57543;45.442;9.212;2022-12-07T10:42:20;4.74;77.49
70170;DHT22;57543;45.442;9.212;2022-12-07T10:45:24;4.72;77.44
70170;DHT22;57543;45.442;9.212;2022-12-07T10:48:50;4.74;77.25
70170;DHT22;57543;45.442;9.212;2022-12-07T10:55:26;4.85;77.19
70170;DHT22;57543;45.442;9.212;2022-12-07T10:59:12;4.82;77.53
70170;DHT22;57543;45.442;9.212;2022-12-07T11:02:27;4.78;77.84
70170;DHT22;57543;45.442;9.212;2022-12-07T11:05:45;4.85;77.76
70170;DHT22;57543;45.442;9.212;2022-12-07T11:09:03;4.91;77.69
70170;DHT22;57543;45.442;9.212;2022-12-07T11:22:22;5.13;77.04
70170;DHT22;57543;45.442;9.212;2022-12-07T11:25:57;5.24;76.28
70170;DHT22;57543;45.442;9.212;2022-12-07T11:36:24;5.12;77.20
70170;DHT22;57543;45.442;9.212;2022-12-07T11:39:36;5.12;77.76
70170;DHT22;57543;45.442;9.212;2022-12-07T11:42:49;5.17;78.02
70170;DHT22;57543;45.442;9.212;2022-12-07T11:46:05;5.16;78.01
70170;DHT22;57543;45.442;9.212;2022-12-07T11:50:14;5.20;78.20
70170;DHT22;57543;45.442;9.212;2022-12-07T11:59:29;5.27;78.82
70170;DHT22;57543;45.442;9.212;2022-12-07T12:02:46;5.33;78.96
70170;DHT22;57543;45.442;9.212;2022-12-07T12:05:53;5.36;79.14
70170;DHT22;57543;45.442;9.212;2022-12-07T12:12:40;5.36;79.57
70170;DHT22;57543;45.442;9.212;2022-12-07T12:22:28;5.28;80.21
70170;DHT22;57543;45.442;9.212;2022-12-07T12:25:37;5.34;80.61
70170;DHT22;57543;45.442;9.212;2022-12-07T12:32:06;5.38;80.52
70170;DHT22;57543;45.442;9.212;2022-12-07T12:35:32;5.45;80.30
70170;DHT22;57543;45.442;9.212;2022-12-07T12:38:48;5.47;80.33
70170;DHT22;57543;45.442;9.212;2022-12-07T12:41:57;5.52;80.27
70170;DHT22;57543;45.442;9.212;2022-12-07T12:45:29;5.56;80.31
70170;DHT22;57543;45.442;9.212;2022-12-07T12:48:36;5.61;80.24
70170;DHT22;57543;45.442;9.212;2022-12-07T12:55:12;5.64;80.60
70170;DHT22;57543;45.442;9.212;2022-12-07T13:01:39;5.65;81.37
70170;DHT22;57543;45.442;9.212;2022-12-07T13:04:54;5.69;81.36
70170;DHT22;57543;45.442;9.212;2022-12-07T13:08:04;5.73;80.99
70170;DHT22;57543;45.442;9.212;2022-12-07T13:11:31;5.79;80.76
70170;DHT22;57543;45.442;9.212;2022-12-07T13:14:51;5.86;80.24
70170;DHT22;57543;45.442;9.212;2022-12-07T13:17:57;5.89;80.12
70170;DHT22;57543;45.442;9.212;2022-12-07T13:24:12;6.17;78.84
70170;DHT22;57543;45.442;9.212;2022-12-07T13:27:17;6.18;78.74
70170;DHT22;57543;45.442;9.212;2022-12-07T13:30:21;6.33;78.49
70170;DHT22;57543;45.442;9.212;2022-12-07T13:33:27;6.45;78.19
70170;DHT22;57543;45.442;9.212;2022-12-07T13:36:36;6.72;77.73
70170;DHT22;57543;45.442;9.212;2022-12-07T13:39:49;7.07;76.71
70170;DHT22;57543;45.442;9.212;2022-12-07T13:42:58;7.44;75.48
70170;DHT22;57543;45.442;9.212;2022-12-07T13:46:07;7.78;74.26
70170;DHT22;57543;45.442;9.212;2022-12-07T13:49:31;8.07;72.88
70170;DHT22;57543;45.442;9.212;2022-12-07T13:52:43;8.31;72.20
70170;DHT22;57543;45.442;9.212;2022-12-07T13:55:47;8.51;71.34
70170;DHT22;57543;45.442;9.212;2022-12-07T13:58:51;8.69;70.72
70170;DHT22;57543;45.442;9.212;2022-12-07T14:01:55;8.75;70.10
70170;DHT22;57543;45.442;9.212;2022-12-07T14:05:14;8.76;70.10
70170;DHT22;57543;45.442;9.212;2022-12-07T14:11:22;8.99;69.61
70170;DHT22;57543;45.442;9.212;2022-12-07T14:14:28;9.13;69.64
70170;DHT22;57543;45.442;9.212;2022-12-07T14:17:32;9.30;69.11
70170;DHT22;57543;45.442;9.212;2022-12-07T14:20:37;9.36;68.42
70170;DHT22;57543;45.442;9.212;2022-12-07T14:23:41;9.45;68.43
70170;DHT22;57543;45.442;9.212;2022-12-07T14:26:50;9.55;68.19
70170;DHT22;57543;45.442;9.212;2022-12-07T14:29:54;9.62;67.89
70170;DHT22;57543;45.442;9.212;2022-12-07T14:33:03;9.53;68.08
70170;DHT22;57543;45.442;9.212;2022-12-07T14:36:14;9.46;68.38
70170;DHT22;57543;45.442;9.212;2022-12-07T14:39:18;9.43;68.58
70170;DHT22;57543;45.442;9.212;2022-12-07T14:42:26;9.34;68.93
70170;DHT22;57543;45.442;9.212;2022-12-07T14:45:30;9.14;69.44
70170;DHT22;57543;45.442;9.212;2022-12-07T14:48:34;8.97;69.84
70170;DHT22;57543;45.442;9.212;2022-12-07T14:51:39;8.73;70.85
70170;DHT22;57543;45.442;9.212;2022-12-07T14:54:43;8.53;71.64
70170;DHT22;57543;45.442;9.212;2022-12-07T14:57:47;8.23;72.50
70170;DHT22;57543;45.442;9.212;2022-12-07T15:00:51;8.23;72.90
70170;DHT22;57543;45.442;9.212;2022-12-07T15:03:55;8.11;73.11
70170;DHT22;57543;45.442;9.212;2022-12-07T15:07:02;8.01;73.47
70170;DHT22;57543;45.442;9.212;2022-12-07T15:10:14;7.97;73.82
70170;DHT22;57543;45.442;9.212;2022-12-07T15:13:18;7.91;73.96
70170;DHT22;57543;45.442;9.212;2022-12-07T15:16:42;7.83;74.34
70170;DHT22;57543;45.442;9.212;2022-12-07T15:19:45;7.75;74.68
70170;DHT22;57543;45.442;9.212;2022-12-07T15:22:49;7.65;75.09
70170;DHT22;57543;45.442;9.212;2022-12-07T15:25:52;7.55;75.52
70170;DHT22;57543;45.442;9.212;2022-12-07T15:28:56;7.47;75.95
70170;DHT22;57543;45.442;9.212;2022-12-07T15:32:00;7.47;75.99
70170;DHT22;57543;45.442;9.212;2022-12-07T15:35:03;7.48;76.19
70170;DHT22;57543;45.442;9.212;2022-12-07T15:38:07;7.41;76.68
70170;DHT22;57543;45.442;9.212;2022-12-07T15:41:11;7.32;78.44
70170;DHT22;57543;45.442;9.212;2022-12-07T15:44:15;7.31;78.48
70170;DHT22;57543;45.442;9.212;2022-12-07T15:47:42;7.30;78.32
70170;DHT22;57543;45.442;9.212;2022-12-07T15:50:46;7.28;78.17
70170;DHT22;57543;45.442;9.212;2022-12-07T15:53:50;7.16;78.52
70170;DHT22;57543;45.442;9.212;2022-12-07T15:56:55;7.03;78.59
70170;DHT22;57543;45.442;9.212;2022-12-07T15:59:59;6.81;79.55
70170;DHT22;57543;45.442;9.212;2022-12-07T16:03:03;6.71;80.07
70170;DHT22;57543;45.442;9.212;2022-12-07T16:06:07;6.68;80.19
70170;DHT22;57543;45.442;9.212;2022-12-07T16:09:10;6.71;80.16
70170;DHT22;57543;45.442;9.212;2022-12-07T16:12:14;6.58;80.16
70170;DHT22;57543;45.442;9.212;2022-12-07T16:15:18;6.44;80.43
70170;DHT22;57543;45.442;9.212;2022-12-07T16:18:21;6.34;80.56
70170;DHT22;57543;45.442;9.212;2022-12-07T16:21:25;6.24;80.48
70170;DHT22;57543;45.442;9.212;2022-12-07T16:24:29;6.18;80.99
70170;DHT22;57543;45.442;9.212;2022-12-07T16:27:34;6.21;81.05
70170;DHT22;57543;45.442;9.212;2022-12-07T16:30:38;6.26;81.05
70170;DHT22;57543;45.442;9.212;2022-12-07T16:33:43;6.23;81.12
70170;DHT22;57543;45.442;9.212;2022-12-07T16:36:47;6.28;80.99
70170;DHT22;57543;45.442;9.212;2022-12-07T16:39:50;6.28;80.90
70170;DHT22;57543;45.442;9.212;2022-12-07T16:42:55;6.28;80.93
70170;DHT22;57543;45.442;9.212;2022-12-07T16:45:58;6.27;80.88
70170;DHT22;57543;45.442;9.212;2022-12-07T16:49:02;6.28;80.65
70170;DHT22;57543;45.442;9.212;2022-12-07T16:52:06;6.23;80.86
70170;DHT22;57543;45.442;9.212;2022-12-07T16:55:09;6.21;80.90
70170;DHT22;57543;45.442;9.212;2022-12-07T16:58:14;6.18;80.99
70170;DHT22;57543;45.442;9.212;2022-12-07T17:01:19;6.17;80.85
70170;DHT22;57543;45.442;9.212;2022-12-07T17:04:25;6.07;80.99
70170;DHT22;57543;45.442;9.212;2022-12-07T17:07:28;6.07;81.08
70170;DHT22;57543;45.442;9.212;2022-12-07T17:10:33;6.05;81.10
70170;DHT22;57543;45.442;9.212;2022-12-07T17:13:38;6.06;81.14
70170;DHT22;57543;45.442;9.212;2022-12-07T17:17:02;6.02;81.04
70170;DHT22;57543;45.442;9.212;2022-12-07T17:20:06;5.96;81.19
70170;DHT22;57543;45.442;9.212;2022-12-07T17:23:10;5.95;81.37
70170;DHT22;57543;45.442;9.212;2022-12-07T17:26:16;5.95;81.13
70170;DHT22;57543;45.442;9.212;2022-12-07T17:29:21;5.92;81.01
70170;DHT22;57543;45.442;9.212;2022-12-07T17:32:25;5.88;81.24
70170;DHT22;57543;45.442;9.212;2022-12-07T17:35:29;5.79;81.28
70170;DHT22;57543;45.442;9.212;2022-12-07T17:38:33;5.81;81.50
70170;DHT22;57543;45.442;9.212;2022-12-07T17:41:37;5.76;81.15
70170;DHT22;57543;45.442;9.212;2022-12-07T17:44:59;5.59;81.93
70170;DHT22;57543;45.442;9.212;2022-12-07T17:48:04;5.59;82.26
70170;DHT22;57543;45.442;9.212;2022-12-07T17:51:08;5.62;82.35
70170;DHT22;57543;45.442;9.212;2022-12-07T17:54:30;5.65;82.47
70170;DHT22;57543;45.442;9.212;2022-12-07T17:57:33;5.64;82.71
70170;DHT22;57543;45.442;9.212;2022-12-07T18:00:37;5.64;82.58
70170;DHT22;57543;45.442;9.212;2022-12-07T18:03:41;5.56;82.98
70170;DHT22;57543;45.442;9.212;2022-12-07T18:06:45;5.56;82.92
70170;DHT22;57543;45.442;9.212;2022-12-07T18:09:49;5.55;83.21
70170;DHT22;57543;45.442;9.212;2022-12-07T18:12:52;5.52;83.07
70170;DHT22;57543;45.442;9.212;2022-12-07T18:16:17;5.43;83.49
70170;DHT22;57543;45.442;9.212;2022-12-07T18:19:22;5.40;83.48
70170;DHT22;57543;45.442;9.212;2022-12-07T18:22:26;5.30;84.09
70170;DHT22;57543;45.442;9.212;2022-12-07T18:25:30;5.40;84.20
70170;DHT22;57543;45.442;9.212;2022-12-07T18:28:34;5.43;84.18
70170;DHT22;57543;45.442;9.212;2022-12-07T18:31:37;5.41;84.34
70170;DHT22;57543;45.442;9.212;2022-12-07T18:34:41;5.43;84.32
70170;DHT22;57543;45.442;9.212;2022-12-07T18:37:45;5.40;84.50
70170;DHT22;57543;45.442;9.212;2022-12-07T18:40:49;5.44;84.59
70170;DHT22;57543;45.442;9.212;2022-12-07T18:43:53;5.33;84.65
70170;DHT22;57543;45.442;9.212;2022-12-07T18:46:57;5.38;84.96
70170;DHT22;57543;45.442;9.212;2022-12-07T18:50:01;5.44;84.94
70170;DHT22;57543;45.442;9.212;2022-12-07T18:53:06;5.44;84.74
70170;DHT22;57543;45.442;9.212;2022-12-07T18:56:20;5.43;84.83
70170;DHT22;57543;45.442;9.212;2022-12-07T18:59:24;5.41;84.96
70170;DHT22;57543;45.442;9.212;2022-12-07T19:02:50;5.41;85.39
70170;DHT22;57543;45.442;9.212;2022-12-07T19:05:54;5.48;85.14
70170;DHT22;57543;45.442;9.212;2022-12-07T19:09:00;5.47;85.36
70170;DHT22;57543;45.442;9.212;2022-12-07T19:12:04;5.50;85.39
70170;DHT22;57543;45.442;9.212;2022-12-07T19:15:11;5.54;85.31
70170;DHT22;57543;45.442;9.212;2022-12-07T19:18:15;5.52;85.38
70170;DHT22;57543;45.442;9.212;2022-12-07T19:21:18;5.44;85.47
70170;DHT22;57543;45.442;9.212;2022-12-07T19:24:22;5.45;85.68
70170;DHT22;57543;45.442;9.212;2022-12-07T19:27:26;5.50;85.66
70170;DHT22;57543;45.442;9.212;2022-12-07T19:30:30;5.51;85.67
70170;DHT22;57543;45.442;9.212;2022-12-07T19:33:33;5.52;85.72
70170;DHT22;57543;45.442;9.212;2022-12-07T19:36:38;5.54;85.66
70170;DHT22;57543;45.442;9.212;2022-12-07T19:39:42;5.52;85.85
70170;DHT22;57543;45.442;9.212;2022-12-07T19:42:45;5.54;85.62
70170;DHT22;57543;45.442;9.212;2022-12-07T19:45:49;5.56;85.77
70170;DHT22;57543;45.442;9.212;2022-12-07T19:48:53;5.55;85.76
70170;DHT22;57543;45.442;9.212;2022-12-07T19:51:59;5.58;85.75
70170;DHT22;57543;45.442;9.212;2022-12-07T19:55:03;5.58;85.88
70170;DHT22;57543;45.442;9.212;2022-12-07T19:58:07;5.54;85.78
70170;DHT22;57543;45.442;9.212;2022-12-07T20:01:11;5.54;86.05
70170;DHT22;57543;45.442;9.212;2022-12-07T20:04:17;5.58;86.01
70170;DHT22;57543;45.442;9.212;2022-12-07T20:07:22;5.62;86.01
70170;DHT22;57543;45.442;9.212;2022-12-07T20:10:26;5.55;86.10
70170;DHT22;57543;45.442;9.212;2022-12-07T20:13:29;5.56;86.23
70170;DHT22;57543;45.442;9.212;2022-12-07T20:16:36;5.54;86.16
70170;DHT22;57543;45.442;9.212;2022-12-07T20:19:42;5.62;86.06
70170;DHT22;57543;45.442;9.212;2022-12-07T20:22:46;5.62;85.91
70170;DHT22;57543;45.442;9.212;2022-12-07T20:25:50;5.62;85.89
70170;DHT22;57543;45.442;9.212;2022-12-07T20:28:54;5.66;85.84
70170;DHT22;57543;45.442;9.212;2022-12-07T20:31:57;5.75;85.65
70170;DHT22;57543;45.442;9.212;2022-12-07T20:35:01;5.75;85.56
70170;DHT22;57543;45.442;9.212;2022-12-07T20:38:05;5.75;85.61
70170;DHT22;57543;45.442;9.212;2022-12-07T20:41:10;5.76;85.45
70170;DHT22;57543;45.442;9.212;2022-12-07T20:44:34;5.82;85.34
70170;DHT22;57543;45.442;9.212;2022-12-07T20:47:38;5.75;85.35
70170;DHT22;57543;45.442;9.212;2022-12-07T20:50:42;5.75;85.56
70170;DHT22;57543;45.442;9.212;2022-12-07T20:53:45;5.79;85.47
70170;DHT22;57543;45.442;9.212;2022-12-07T20:56:49;5.82;85.44
70170;DHT22;57543;45.442;9.212;2022-12-07T20:59:53;5.86;85.19
70170;DHT22;57543;45.442;9.212;2022-12-07T21:02:57;5.85;85.00
70170;DHT22;57543;45.442;9.212;2022-12-07T21:06:01;5.76;85.02
70170;DHT22;57543;45.442;9.212;2022-12-07T21:09:06;5.78;85.08
70170;DHT22;57543;45.442;9.212;2022-12-07T21:12:10;5.81;84.76
70170;DHT22;57543;45.442;9.212;2022-12-07T21:15:14;5.66;84.83
70170;DHT22;57543;45.442;9.212;2022-12-07T21:18:17;5.68;85.00